Airfield :
LOGIN :

Register | Disclaimer

   EN    FR    IT 

 










Legend :    VFR   Marginal VFR   IFR   Intensive IFR   Very Intensive IFR
Visi :
Ceiling :
>= 8 km
>= 3000ft
5 to 8 km
1000 to 3000 ft
1500m to 5 km
500 to 1000 ft
800 to 1500m
200 to 500 ft
< 800m
< 200 ft
Symbols :   Thunderstorms  Fog  Heavy snow  Heavy precipitations  Wind > 20 kt
SIGMETs :     Misc.  Thunderstorms  Icing  Turbulence  Mountain Waves  Volcanic Ashes






- Airport Elevation : 436 ft
- IATA code : BTS


LZIB - Bratislava

CURRENT METAR :
  • 180730Z 29006KT 9999 -RA FEW010 06/03 Q1017 NOSIG

EXPIRED METARs :
  • 180700Z 29006KT 9999 -RA FEW010 06/03 Q1017 NOSIG
  • 180630Z 30007KT 9999 -RA FEW009 06/03 Q1017 NOSIG
  • 180600Z 30007KT 9999 -RA FEW009 06/03 Q1017 NOSIG
  • 180530Z 30008KT 9999 FEW009 06/02 Q1017 NOSIG
  • 180500Z 30008KT 9999 FEW010 06/02 Q1017 NOSIG

TAF TAF LZIB
Valid from the 18 at 06:00 until the 19 at 06:00 UTC


180500Z 1806/1906 33007KT 9999 BKN040
TEMPO 1810/1814 33015KT
TEMPO 1815/1906 VRB02KT -RA BKN030
PROB40
TEMPO 1902/1906 04007KT 2500 RA BKN015



MET'MAP, your aeronautical weather chart ! - Copyright ORBIFLY December 2007 - Disclaimer

ORBIFLY MET'MAP TEAM :

Programming & Development : Alexandra Zaïnal
Concept & original design : Baudouin d'Aumeries
Assistance for programming : Marc-Olivier Méhu
Technical & hardware support : Manuel Goepfert

Contact : metmap@orbifly.com




SOURCES & CREDITS :

   NOAA